createdAt,value
2023-03-10T00:00:40.270Z,7.03
2023-03-10T00:03:21.971Z,11.15
2023-03-10T00:05:49.329Z,11.25
2023-03-10T00:08:17.045Z,9.52
2023-03-10T00:10:44.260Z,11.50
2023-03-10T00:13:11.707Z,9.27
2023-03-10T00:15:38.908Z,8.25
2023-03-10T00:18:06.351Z,8.80
2023-03-10T00:20:33.515Z,9.75
2023-03-10T00:23:00.901Z,11.73
2023-03-10T00:25:28.032Z,13.00
2023-03-10T00:27:55.426Z,9.20
2023-03-10T00:30:22.941Z,9.23
2023-03-10T00:32:51.036Z,9.57
2023-03-10T00:35:18.393Z,12.93
2023-03-10T00:37:46.957Z,7.65
2023-03-10T00:40:15.826Z,9.18
2023-03-10T00:42:44.847Z,10.40
2023-03-10T00:45:14.046Z,10.68
2023-03-10T00:47:42.824Z,12.98
2023-03-10T00:50:10.926Z,9.02
2023-03-10T00:52:38.347Z,10.73
2023-03-10T00:55:05.833Z,9.50
2023-03-10T00:57:35.834Z,9.77
2023-03-10T01:00:06.035Z,10.82
2023-03-10T01:02:33.822Z,10.70
2023-03-10T01:05:00.965Z,8.93
2023-03-10T01:07:28.474Z,8.43
2023-03-10T01:09:55.556Z,10.30
2023-03-10T01:12:23.072Z,12.20
2023-03-10T01:14:50.208Z,9.40
2023-03-10T01:17:17.645Z,10.85
2023-03-10T01:19:44.783Z,12.02
2023-03-10T01:22:12.232Z,11.18
2023-03-10T01:24:39.434Z,10.52
2023-03-10T01:27:06.888Z,13.35
2023-03-10T01:29:34.029Z,12.63
2023-03-10T01:32:01.566Z,10.25
2023-03-10T01:34:31.064Z,13.20
2023-03-10T01:36:58.667Z,11.60
2023-03-10T01:39:25.993Z,11.20
2023-03-10T01:41:53.410Z,11.07
2023-03-10T01:44:21.800Z,10.82
2023-03-10T01:46:52.920Z,12.40
2023-03-10T01:49:34.265Z,9.90
2023-03-10T01:52:10.506Z,8.88
2023-03-10T01:54:40.538Z,11.50
2023-03-10T01:57:09.487Z,10.23
2023-03-10T01:59:36.745Z,11.10
2023-03-10T02:02:04.891Z,10.05
2023-03-10T02:04:44.847Z,10.93
2023-03-10T02:07:13.153Z,11.48
2023-03-10T02:09:44.562Z,11.50
2023-03-10T02:12:13.425Z,11.15
2023-03-10T02:14:41.035Z,9.60
2023-03-10T02:17:11.303Z,11.75
2023-03-10T02:19:58.244Z,10.82
2023-03-10T02:22:27.234Z,10.07
2023-03-10T02:25:04.543Z,10.73
2023-03-10T02:27:34.924Z,7.97
2023-03-10T02:30:19.009Z,7.38
2023-03-10T02:32:52.137Z,9.43
2023-03-10T02:35:21.834Z,9.35
2023-03-10T02:37:54.928Z,10.38
2023-03-10T02:40:40.597Z,7.30
2023-03-10T02:43:30.445Z,7.40
2023-03-10T02:46:08.599Z,9.30
2023-03-10T02:48:41.509Z,8.95
2023-03-10T02:51:18.478Z,9.18
2023-03-10T02:53:46.202Z,12.63
2023-03-10T02:56:13.483Z,7.20
2023-03-10T02:58:43.378Z,10.65
2023-03-10T03:01:10.680Z,7.75
2023-03-10T03:03:41.649Z,7.10
2023-03-10T03:06:09.988Z,6.63
2023-03-10T03:08:37.437Z,7.80
2023-03-10T03:11:07.323Z,6.60
2023-03-10T03:13:35.943Z,12.65
2023-03-10T03:16:06.260Z,8.02
2023-03-10T03:18:33.724Z,7.32
2023-03-10T03:21:12.595Z,8.30
2023-03-10T03:23:41.401Z,7.63
2023-03-10T03:26:21.321Z,6.80
2023-03-10T03:28:52.200Z,10.63
2023-03-10T03:31:25.436Z,6.50
2023-03-10T03:34:01.994Z,10.07
2023-03-10T03:36:29.329Z,7.63
2023-03-10T03:38:57.249Z,8.13
2023-03-10T03:41:25.377Z,7.32
2023-03-10T03:43:53.141Z,8.00
2023-03-10T03:46:20.451Z,4.35
2023-03-10T03:48:47.875Z,5.97
2023-03-10T03:51:15.022Z,4.50
2023-03-10T03:53:43.629Z,8.80
2023-03-10T03:56:10.755Z,5.47
2023-03-10T03:58:41.870Z,5.90
2023-03-10T04:01:09.994Z,5.03
2023-03-10T04:03:42.982Z,4.68
2023-03-10T04:06:12.968Z,5.57
2023-03-10T04:08:42.102Z,6.05
2023-03-10T04:11:09.582Z,6.45
2023-03-10T04:13:41.960Z,6.00
2023-03-10T04:16:10.194Z,6.05
2023-03-10T04:18:40.377Z,4.97
2023-03-10T04:21:09.978Z,6.35
2023-03-10T04:23:37.833Z,5.70
2023-03-10T04:26:11.737Z,6.80
2023-03-10T04:28:40.887Z,6.80
2023-03-10T04:31:17.915Z,6.93
2023-03-10T04:33:47.716Z,7.40
2023-03-10T04:36:15.890Z,5.95
2023-03-10T04:38:46.265Z,5.18
2023-03-10T04:41:14.100Z,6.25
2023-03-10T04:43:47.620Z,7.28
2023-03-10T04:46:16.116Z,5.18
2023-03-10T04:48:44.104Z,9.18
2023-03-10T04:51:13.727Z,6.18
2023-03-10T04:53:50.925Z,6.25
2023-03-10T04:56:19.249Z,5.82
2023-03-10T04:58:47.465Z,6.03
2023-03-10T05:01:16.140Z,6.13
2023-03-10T05:03:47.871Z,7.40
2023-03-10T05:06:19.495Z,6.05
2023-03-10T05:08:54.240Z,6.90
2023-03-10T05:11:24.548Z,6.38
2023-03-10T05:13:51.731Z,4.63
2023-03-10T05:16:21.561Z,6.47
2023-03-10T05:18:50.219Z,8.55
2023-03-10T05:21:22.403Z,9.32
2023-03-10T05:23:51.332Z,7.32
2023-03-10T05:26:20.261Z,10.40
2023-03-10T05:28:48.276Z,7.50
2023-03-10T05:31:26.168Z,6.35
2023-03-10T05:33:58.785Z,8.82
2023-03-10T05:36:26.835Z,6.25
2023-03-10T05:38:54.595Z,7.93
2023-03-10T05:41:22.334Z,7.22
2023-03-10T05:43:54.173Z,8.02
2023-03-10T05:46:22.116Z,5.53
2023-03-10T05:48:54.665Z,5.63
2023-03-10T05:51:22.240Z,6.80
2023-03-10T05:53:49.564Z,7.38
2023-03-10T05:56:22.667Z,6.05
2023-03-10T05:58:53.993Z,7.18
2023-03-10T06:01:27.199Z,6.20
2023-03-10T06:03:54.468Z,8.90
2023-03-10T06:06:21.937Z,6.72
2023-03-10T06:08:49.065Z,6.85
2023-03-10T06:11:16.660Z,6.95
2023-03-10T06:13:43.779Z,7.47
2023-03-10T06:16:12.181Z,8.02
2023-03-10T06:18:39.430Z,8.38
2023-03-10T06:21:09.576Z,7.93
2023-03-10T06:23:37.684Z,11.52
2023-03-10T06:26:08.771Z,7.25
2023-03-10T06:28:38.827Z,7.90
2023-03-10T06:31:34.411Z,9.35
2023-03-10T06:34:04.330Z,8.10
2023-03-10T06:36:32.709Z,9.88
2023-03-10T06:38:59.978Z,8.77
2023-03-10T06:41:28.108Z,9.68
2023-03-10T06:43:55.286Z,7.13
2023-03-10T06:46:22.898Z,8.85
2023-03-10T06:48:50.124Z,9.00
2023-03-10T06:51:21.788Z,7.03
2023-03-10T06:53:49.497Z,8.10
2023-03-10T06:56:19.705Z,7.25
2023-03-10T06:58:47.918Z,9.40
2023-03-10T07:01:34.513Z,7.88
2023-03-10T07:04:02.278Z,7.28
2023-03-10T07:06:30.318Z,9.23
2023-03-10T07:08:57.571Z,7.57
2023-03-10T07:11:26.159Z,6.32
2023-03-10T07:13:54.757Z,6.28
2023-03-10T07:16:23.274Z,8.65
2023-03-10T07:18:51.031Z,7.35
2023-03-10T07:21:20.490Z,9.45
2023-03-10T07:23:47.917Z,8.70
2023-03-10T07:26:18.610Z,9.27
2023-03-10T07:28:46.329Z,8.88
2023-03-10T07:31:15.150Z,6.80
2023-03-10T07:33:42.659Z,6.80
2023-03-10T07:36:12.983Z,7.97
2023-03-10T07:38:40.549Z,9.80
2023-03-10T07:41:09.259Z,10.02
2023-03-10T07:43:36.653Z,8.48
2023-03-10T07:46:09.300Z,9.00
2023-03-10T07:48:36.650Z,9.23
2023-03-10T07:51:04.361Z,9.35
2023-03-10T07:53:31.775Z,10.32
2023-03-10T07:56:00.001Z,9.10
2023-03-10T07:58:27.712Z,8.85
2023-03-10T08:00:56.910Z,12.35
2023-03-10T08:03:25.735Z,9.38
2023-03-10T08:05:53.257Z,8.55
2023-03-10T08:08:20.893Z,8.95
2023-03-10T08:10:48.605Z,8.27
2023-03-10T08:13:15.832Z,8.98
2023-03-10T08:15:43.463Z,7.57
2023-03-10T08:18:10.694Z,10.18
2023-03-10T08:20:40.599Z,8.38
2023-03-10T08:23:07.868Z,9.05
2023-03-10T08:25:35.551Z,9.40
2023-03-10T08:28:02.719Z,8.73
2023-03-10T08:30:30.126Z,11.40
2023-03-10T08:32:57.292Z,10.82
2023-03-10T08:35:24.793Z,11.13
2023-03-10T08:37:55.262Z,9.88
2023-03-10T08:40:23.015Z,10.75
2023-03-10T08:42:50.170Z,9.50
2023-03-10T08:45:17.610Z,11.13
2023-03-10T08:47:45.009Z,8.57
2023-03-10T08:50:13.678Z,11.02
2023-03-10T08:52:41.438Z,9.88
2023-03-10T08:55:09.083Z,9.55
2023-03-10T08:57:36.356Z,11.48
2023-03-10T09:00:06.381Z,11.27
2023-03-10T09:02:33.980Z,12.25
2023-03-10T09:05:01.399Z,12.10
2023-03-10T09:07:28.646Z,12.50
2023-03-10T09:09:56.206Z,9.75
2023-03-10T09:12:23.298Z,10.48
2023-03-10T09:14:50.844Z,14.80
2023-03-10T09:17:18.094Z,10.68
2023-03-10T09:19:45.534Z,9.85
2023-03-10T09:22:12.634Z,11.20
2023-03-10T09:24:40.060Z,10.98
2023-03-10T09:27:07.632Z,16.52
2023-03-10T09:29:43.115Z,14.40
2023-03-10T09:32:11.003Z,13.23
2023-03-10T09:34:38.553Z,12.07
2023-03-10T09:37:07.486Z,11.82
2023-03-10T09:39:35.966Z,14.85
2023-03-10T09:42:37.904Z,15.93
2023-03-10T09:45:42.800Z,15.50
2023-03-10T09:48:41.022Z,11.70
2023-03-10T09:51:29.001Z,11.70
2023-03-10T09:53:56.230Z,16.77
2023-03-10T09:56:31.820Z,16.58
2023-03-10T09:59:25.423Z,13.25
2023-03-10T10:01:54.045Z,12.35
2023-03-10T10:04:35.284Z,16.52
2023-03-10T10:07:10.968Z,13.60
2023-03-10T10:09:43.724Z,16.85
2023-03-10T10:12:13.569Z,13.82
2023-03-10T10:14:48.104Z,15.45
2023-03-10T10:17:56.768Z,15.13
2023-03-10T10:22:59.018Z,12.50
2023-03-10T10:25:31.380Z,12.80
2023-03-10T10:28:00.926Z,15.82
2023-03-10T10:30:36.859Z,12.38
2023-03-10T10:33:13.043Z,11.82
2023-03-10T10:35:46.735Z,14.88
2023-03-10T10:38:17.031Z,16.30
2023-03-10T10:41:15.696Z,16.67
2023-03-10T10:43:45.163Z,16.63
2023-03-10T10:46:15.165Z,19.73
2023-03-10T10:48:47.724Z,19.55
2023-03-10T10:51:29.100Z,18.35
2023-03-10T10:54:02.321Z,22.65
2023-03-10T10:56:30.299Z,18.25
2023-03-10T10:59:21.912Z,20.75
2023-03-10T11:01:59.381Z,22.13
2023-03-10T11:04:43.025Z,24.60
2023-03-10T11:07:27.059Z,28.35
2023-03-10T11:09:58.054Z,27.25
2023-03-10T11:12:41.448Z,31.08
2023-03-10T11:15:30.070Z,31.00
2023-03-10T11:18:09.206Z,30.25
2023-03-10T11:20:58.709Z,30.95
2023-03-10T11:23:50.050Z,27.92
2023-03-10T11:26:39.642Z,25.92
2023-03-10T11:29:15.734Z,26.45
2023-03-10T11:32:06.005Z,27.92
2023-03-10T11:34:37.122Z,25.52
2023-03-10T11:37:25.145Z,28.85
2023-03-10T11:39:52.190Z,29.02
2023-03-10T11:42:29.634Z,29.35
2023-03-10T11:45:16.992Z,27.02
2023-03-10T11:47:59.528Z,27.70
2023-03-10T11:50:35.531Z,27.88
2023-03-10T11:53:12.216Z,32.60
2023-03-10T11:55:41.131Z,23.42
2023-03-10T11:58:22.584Z,33.90
2023-03-10T12:00:53.781Z,32.50
2023-03-10T12:03:21.199Z,39.10
2023-03-10T12:05:58.681Z,31.02
2023-03-10T12:08:31.312Z,33.55
2023-03-10T12:11:01.360Z,33.03
2023-03-10T12:13:40.877Z,30.75
2023-03-10T12:16:10.731Z,29.83
2023-03-10T12:18:38.249Z,36.95
2023-03-10T12:21:21.032Z,35.70
2023-03-10T12:23:53.276Z,38.45
2023-03-10T12:26:45.134Z,39.63
2023-03-10T12:29:21.517Z,43.55
2023-03-10T12:31:53.498Z,33.80
2023-03-10T12:34:31.380Z,43.63
2023-03-10T12:37:12.507Z,42.25
2023-03-10T12:39:44.207Z,44.38
2023-03-10T12:42:39.718Z,47.50
2023-03-10T12:45:07.047Z,48.15
2023-03-10T12:47:43.625Z,50.63
2023-03-10T12:50:57.875Z,48.10
2023-03-10T12:53:49.455Z,47.95
2023-03-10T12:56:33.020Z,39.55
2023-03-10T12:59:09.222Z,41.63
2023-03-10T13:01:53.292Z,39.88
2023-03-10T13:04:24.201Z,41.80
2023-03-10T13:06:56.827Z,36.95
2023-03-10T13:09:31.964Z,42.15
2023-03-10T13:12:28.483Z,40.33
2023-03-10T13:14:58.008Z,38.47
2023-03-10T13:17:31.588Z,41.85
2023-03-10T13:20:00.149Z,43.28
2023-03-10T13:22:28.081Z,44.63
2023-03-10T13:25:13.502Z,39.50
2023-03-10T13:27:41.033Z,41.15
2023-03-10T13:30:20.118Z,42.47
2023-03-10T13:33:18.311Z,48.78
2023-03-10T13:35:47.366Z,45.65
2023-03-10T13:38:19.046Z,42.17
2023-03-10T13:40:47.653Z,44.45
2023-03-10T13:43:41.849Z,43.65
2023-03-10T13:46:19.665Z,49.35
2023-03-10T13:48:48.854Z,43.30
2023-03-10T13:51:20.691Z,46.80
2023-03-10T13:53:52.745Z,44.72
2023-03-10T13:56:36.044Z,42.70
2023-03-10T13:59:06.412Z,45.50
2023-03-10T14:01:37.257Z,43.92
2023-03-10T14:04:08.877Z,46.97
2023-03-10T14:06:37.354Z,48.03
2023-03-10T14:09:13.693Z,45.83
2023-03-10T14:11:47.032Z,46.93
2023-03-10T14:14:27.731Z,50.40
2023-03-10T14:16:57.436Z,49.45
2023-03-10T14:19:43.144Z,53.25
2023-03-10T14:22:29.142Z,52.70
2023-03-10T14:24:58.764Z,48.47
2023-03-10T14:27:27.080Z,51.55
2023-03-10T14:29:57.607Z,48.65
2023-03-10T14:32:25.350Z,47.90
2023-03-10T14:34:52.919Z,48.17
2023-03-10T14:37:20.253Z,43.00
2023-03-10T14:39:47.990Z,48.65
2023-03-10T14:42:26.998Z,45.67
2023-03-10T14:44:54.603Z,53.03
2023-03-10T14:47:21.875Z,54.42
2023-03-10T14:49:49.865Z,50.88
2023-03-10T14:52:18.028Z,47.63
2023-03-10T14:54:45.706Z,50.00
2023-03-10T14:57:18.350Z,46.92
2023-03-10T14:59:46.199Z,49.40
2023-03-10T15:02:22.400Z,45.38
2023-03-10T15:04:50.799Z,45.83
2023-03-10T15:07:18.025Z,49.97
2023-03-10T15:09:45.944Z,53.88
2023-03-10T15:12:17.848Z,51.78
2023-03-10T15:14:52.330Z,51.85
2023-03-10T15:17:20.040Z,51.22
2023-03-10T15:19:47.452Z,55.20
2023-03-10T15:22:14.623Z,97.15
2023-03-10T15:24:42.099Z,88.43
2023-03-10T15:27:14.184Z,83.93
2023-03-10T15:29:41.849Z,76.43
2023-03-10T15:32:09.057Z,61.45
2023-03-10T15:34:36.528Z,55.65
2023-03-10T15:37:04.053Z,52.90
2023-03-10T15:39:33.392Z,61.15
2023-03-10T15:42:01.417Z,86.82
2023-03-10T15:44:29.201Z,66.97
2023-03-10T15:46:56.481Z,87.57
2023-03-10T15:49:24.057Z,88.20
2023-03-10T15:51:51.237Z,85.78
2023-03-10T15:54:18.803Z,90.20
2023-03-10T15:56:46.021Z,128.40
2023-03-10T15:59:13.667Z,100.85
2023-03-10T16:01:40.965Z,75.88
2023-03-10T16:04:08.617Z,67.35
2023-03-10T16:06:35.773Z,59.75
2023-03-10T16:09:03.426Z,56.92
2023-03-10T16:11:30.590Z,69.50
2023-03-10T16:13:58.029Z,58.50
2023-03-10T16:16:26.487Z,54.55
2023-03-10T16:18:54.209Z,56.10
2023-03-10T16:21:22.124Z,59.15
2023-03-10T16:23:49.725Z,57.08
2023-03-10T16:26:24.738Z,52.63
2023-03-10T16:28:54.321Z,56.03
2023-03-10T16:31:23.666Z,51.25
2023-03-10T16:33:52.163Z,55.42
2023-03-10T16:36:22.473Z,59.92
2023-03-10T16:38:50.315Z,60.28
2023-03-10T16:41:17.757Z,62.60
2023-03-10T16:43:46.516Z,67.40
2023-03-10T16:46:22.808Z,58.85
2023-03-10T16:48:50.823Z,55.00
2023-03-10T16:51:22.608Z,62.55
2023-03-10T16:53:50.949Z,60.28
2023-03-10T16:56:18.387Z,58.20
2023-03-10T16:58:46.393Z,54.13
2023-03-10T17:01:13.618Z,53.05
2023-03-10T17:03:41.420Z,51.53
2023-03-10T17:06:22.734Z,50.00
2023-03-10T17:08:51.816Z,51.88
2023-03-10T17:11:26.830Z,51.78
2023-03-10T17:13:56.446Z,52.90
2023-03-10T17:16:28.346Z,49.33
2023-03-10T17:19:01.625Z,48.17
2023-03-10T17:21:35.917Z,49.65
2023-03-10T17:24:04.163Z,48.88
2023-03-10T17:26:31.713Z,51.42
2023-03-10T17:28:59.276Z,60.72
2023-03-10T17:31:28.489Z,55.63
2023-03-10T17:33:58.717Z,53.58
2023-03-10T17:36:26.363Z,54.05
2023-03-10T17:38:55.426Z,56.22
2023-03-10T17:41:23.016Z,53.42
2023-03-10T17:43:50.767Z,55.65
2023-03-10T17:46:24.250Z,54.20
2023-03-10T17:48:52.667Z,54.92
2023-03-10T17:51:25.774Z,48.83
2023-03-10T17:53:54.080Z,40.97
2023-03-10T17:56:22.235Z,49.65
2023-03-10T17:58:50.072Z,50.35
2023-03-10T18:01:20.897Z,51.55
2023-03-10T18:03:48.908Z,47.97
2023-03-10T18:06:22.731Z,47.75
2023-03-10T18:08:51.234Z,41.33
2023-03-10T18:11:21.178Z,39.58
2023-03-10T18:13:49.263Z,49.38
2023-03-10T18:16:23.077Z,52.45
2023-03-10T18:18:50.960Z,44.22
2023-03-10T18:21:19.668Z,43.10
2023-03-10T18:23:47.933Z,40.80
2023-03-10T18:26:18.439Z,42.05
2023-03-10T18:28:46.516Z,41.45
2023-03-10T18:31:22.187Z,48.70
2023-03-10T18:33:50.052Z,37.17
2023-03-10T18:36:19.339Z,38.38
2023-03-10T18:38:48.093Z,37.83
2023-03-10T18:41:22.986Z,37.88
2023-03-10T18:43:51.729Z,47.45
2023-03-10T18:46:19.621Z,47.15
2023-03-10T18:48:47.155Z,45.38
2023-03-10T18:51:14.687Z,42.33
2023-03-10T18:53:42.209Z,50.92
2023-03-10T18:56:10.409Z,46.42
2023-03-10T18:58:37.853Z,47.85
2023-03-10T19:01:10.703Z,48.28
2023-03-10T19:03:38.504Z,45.50
2023-03-10T19:06:07.354Z,45.80
2023-03-10T19:08:36.137Z,44.20
2023-03-10T19:11:04.082Z,45.97
2023-03-10T19:13:31.805Z,48.10
2023-03-10T19:15:59.003Z,48.40
2023-03-10T19:18:26.488Z,52.90
2023-03-10T19:21:00.005Z,49.72
2023-03-10T19:23:28.609Z,50.97
2023-03-10T19:25:56.143Z,45.80
2023-03-10T19:28:23.613Z,50.05
2023-03-10T19:30:50.778Z,49.17
2023-03-10T19:33:18.283Z,47.20
2023-03-10T19:35:45.527Z,52.40
2023-03-10T19:38:13.042Z,46.80
2023-03-10T19:40:40.223Z,50.83
2023-03-10T19:43:07.644Z,45.33
2023-03-10T19:45:34.822Z,46.78
2023-03-10T19:48:02.435Z,51.10
2023-03-10T19:50:29.626Z,45.60
2023-03-10T19:52:57.160Z,47.85
2023-03-10T19:55:25.299Z,48.58
2023-03-10T19:57:54.370Z,47.42
2023-03-10T20:00:25.631Z,47.83
2023-03-10T20:02:54.441Z,47.92
2023-03-10T20:05:23.059Z,52.42
2023-03-10T20:07:50.466Z,51.05
2023-03-10T20:10:18.199Z,42.67
2023-03-10T20:12:51.239Z,48.80
2023-03-10T20:15:21.540Z,51.22
2023-03-10T20:17:49.080Z,58.38
2023-03-10T20:20:19.971Z,63.50
2023-03-10T20:22:49.702Z,68.85
2023-03-10T20:25:19.655Z,77.70
2023-03-10T20:27:48.868Z,83.40
2023-03-10T20:30:27.878Z,80.55
2023-03-10T20:32:56.717Z,71.15
2023-03-10T20:35:25.292Z,69.35
2023-03-10T20:37:52.735Z,67.40
2023-03-10T20:40:24.985Z,62.85
2023-03-10T20:42:54.976Z,61.15
2023-03-10T20:45:23.438Z,57.38
2023-03-10T20:47:53.256Z,63.90
2023-03-10T20:50:20.913Z,56.45
2023-03-10T20:52:48.870Z,58.30
2023-03-10T20:55:20.707Z,54.30
2023-03-10T20:57:49.151Z,49.03
2023-03-10T21:00:18.525Z,52.38
2023-03-10T21:02:53.917Z,62.80
2023-03-10T21:05:21.472Z,61.83
2023-03-10T21:07:50.203Z,64.75
2023-03-10T21:10:17.933Z,61.70
2023-03-10T21:12:45.990Z,64.18
2023-03-10T21:15:15.925Z,60.67
2023-03-10T21:17:44.197Z,59.05
2023-03-10T21:20:15.531Z,60.47
2023-03-10T21:22:42.981Z,59.33
2023-03-10T21:25:17.675Z,58.20
2023-03-10T21:27:48.274Z,61.20
2023-03-10T21:30:17.196Z,62.13
2023-03-10T21:32:44.912Z,60.13
2023-03-10T21:35:13.754Z,63.05
2023-03-10T21:37:42.868Z,61.00
2023-03-10T21:40:11.883Z,61.00
2023-03-10T21:42:39.322Z,68.03
2023-03-10T21:45:07.586Z,64.15
2023-03-10T21:47:35.011Z,62.28
2023-03-10T21:50:02.209Z,62.47
2023-03-10T21:52:29.588Z,74.40
2023-03-10T21:54:56.764Z,65.50
2023-03-10T21:57:24.277Z,63.10
2023-03-10T21:59:51.407Z,58.83
2023-03-10T22:02:30.301Z,60.25
2023-03-10T22:04:57.898Z,60.08
2023-03-10T22:07:25.583Z,51.85
2023-03-10T22:09:52.820Z,56.88
2023-03-10T22:12:20.394Z,53.35
2023-03-10T22:14:50.275Z,52.75
2023-03-10T22:17:17.729Z,52.83
2023-03-10T22:19:48.069Z,55.28
2023-03-10T22:22:15.524Z,59.05
2023-03-10T22:24:43.679Z,59.58
2023-03-10T22:27:11.054Z,58.55
2023-03-10T22:29:38.414Z,59.72
2023-03-10T22:32:06.515Z,65.30
2023-03-10T22:34:33.970Z,63.65
2023-03-10T22:37:01.409Z,66.90
2023-03-10T22:39:28.665Z,62.22
2023-03-10T22:41:56.063Z,60.45
2023-03-10T22:44:23.321Z,62.67
2023-03-10T22:46:50.731Z,59.42
2023-03-10T22:49:18.793Z,53.80
2023-03-10T22:51:46.463Z,59.28
2023-03-10T22:54:13.696Z,51.47
2023-03-10T22:56:41.158Z,52.97
2023-03-10T22:59:08.495Z,49.00
2023-03-10T23:01:36.060Z,51.92
2023-03-10T23:04:03.216Z,57.60
2023-03-10T23:06:31.914Z,56.17
2023-03-10T23:08:59.382Z,55.90
2023-03-10T23:11:26.880Z,54.45
2023-03-10T23:13:54.178Z,53.17
2023-03-10T23:16:23.146Z,53.03
2023-03-10T23:18:50.376Z,50.97
2023-03-10T23:21:18.227Z,48.83
2023-03-10T23:23:47.945Z,52.13
2023-03-10T23:26:15.816Z,48.22
2023-03-10T23:28:43.074Z,45.95
2023-03-10T23:31:15.438Z,48.92
2023-03-10T23:33:44.087Z,44.83
2023-03-10T23:36:12.034Z,42.92
2023-03-10T23:38:40.123Z,45.65
2023-03-10T23:41:08.210Z,48.38
2023-03-10T23:43:36.119Z,45.25
2023-03-10T23:46:06.252Z,47.65
2023-03-10T23:48:35.563Z,46.22
2023-03-10T23:51:03.711Z,48.72
2023-03-10T23:53:31.397Z,47.97
2023-03-10T23:56:00.226Z,45.40
2023-03-10T23:58:28.119Z,45.95
